ICAO code: LHPR | IATA code: QGY | SITA: QGYAPXH | AFTN: LHPRZPZX

Időjárási adatok

METAR LHPR 060315Z AUTO 14003KT 070V190 7000 NSC 12/12 Q1007=
TAF LHPR 060215Z 0603/0612 VRB03KT 0800 FG NSC TEMPO 0603/0605 0350
BKN005 BECMG 0604/0606 3000 BR BECMG 0605/0607 CAVOK=
Párásság
2020-06-06 03:20:00 UTC
Hőmérséklet
11.8 °C
 
Harmatpont
11.8 °C
 
Rel. páratartalom
100%
 
QNH
1007.9 hPa
 
Szélsebesség
2.3 m/s
Max
2.3 m/s
Szélirány
170°
 
Csapadék (1 óra)
0.0 mm
 
Látótávolság
8871 m
 
RVR
>1500 m RWY30
 
1. felhőréteg mennyisége
7 octa
 
1. felhőréteg alapja
1940 m